• Join FlightAware (Why Join?)
  • Login
  • US Flag 
05:22AM EDT


 

Airport Tracker/Info


-or-


 

Live Flight TrackerFlight Track Log ✈ UAL1177 ✈ 20-May-2013 ✈ KFLL - KDEN

Flight Track Log - Related Links

Times and Time Zones

All times are in EDT time to prevent confusion due to time zone crossing. See the UAL1177 flight status page for this flight to view local times or setup timezone preferences in your user account.

Time Position Orientation Groundspeed Altitude Reporting Facility
EDT Latitude Longitude Course Direction KTS MPH feet Rate Location/Type
04:33PM 26.0750 -80.1344 331° Northwest 147 169 1,000  Level Miami Center
04:34PM 26.0808 -80.0628 85° East 176 203 2,900 2,160 Climbing Miami Center
04:35PM 26.1339 -80.0225 34° Northeast 267 307 5,600 2,700 Climbing Miami Center
04:36PM 26.1738 -80.5051 293° West  Level FlightAware Approximate
04:36PM 26.1606 -80.0419 327° Northwest 293 337 6,800  Level Miami Center
04:36PM 26.1828 -80.0817 302° West 281 323 8,400 2,640 Climbing Miami Center
04:37PM 26.2220 -80.6193 336° Northwest  Level FlightAware Approximate
04:37PM 26.2058 -80.1681 287° West 298 343 11,000  Level Miami Center
04:38PM 26.3267 -80.6717 336° Northwest  Level FlightAware Approximate
04:38PM 26.2264 -80.2683 283° West 344 396 11,000  Level Miami Center
04:39PM 26.4265 -80.7330 331° Northwest  Level FlightAware Approximate
04:39PM 26.2511 -80.3708 285° West 360 414 11,000  Level Miami Center
04:40PM 26.2697 -80.4664 282° West 355 409 13,400 2,520 Climbing Miami Center
04:41PM 26.3067 -80.5811 290° West 355 409 16,100 2,220 Climbing Miami Center
04:42PM 26.3608 -80.6617 307° West 360 414 17,900 2,040 Climbing Miami Center
04:43PM 26.4400 -80.7522 314° West 370 426 20,200 1,800 Climbing Miami Center
04:44PM 26.5344 -80.8111 331° Northwest 377 434 21,600 1,260 Climbing Miami Center
04:45PM 26.6331 -80.8725 331° Northwest 397 457 22,800 1,260 Climbing Miami Center
04:46PM 26.7167 -80.9428 323° Northwest 411 473 24,200 1,260 Climbing Miami Center
04:47PM 26.8144 -81.0275 322° Northwest 430 495 25,400 1,200 Climbing Miami Center
04:48PM 26.9206 -81.1153 324° Northwest 430 495 26,700 1,200 Climbing Miami Center
04:49PM 27.0183 -81.1981 323° Northwest 436 502 27,800 1,200 Climbing Miami Center
04:50PM 27.1222 -81.2811 325° Northwest 441 507 29,100 1,320 Climbing Miami Center
04:51PM 27.1731 -81.3928 297° West 435 501 30,500 1,200 Climbing Miami Center
04:52PM 27.1961 -81.5244 281° West 421 484 31,600 720 Climbing Miami Center
04:53PM 27.2161 -81.6747 279° West 434 499 32,000 180 Climbing Miami Center
04:54PM 27.2158 -81.8078 270° West 446 513 32,000  Level Miami Center
04:55PM 27.2008 -81.9425 263° West 440 506 32,000  Level Miami Center
04:56PM 27.1736 -82.0581 255° West 440 506 32,100 600 Climbing Miami Center
04:57PM 27.1000 -82.1853 237° Southwest 440 506 33,200 900 Climbing Miami Center
04:58PM 27.0497 -82.3064 245° Southwest 435 501 34,000 840 Climbing Miami Center
04:59PM 27.1167 -82.4100 306° West 357 411 34,900 180 Climbing Miami Center
05:00PM 27.2311 -82.4714 335° Northwest 364 419 34,400 -480 Descending Miami Center
05:01PM 27.3294 -82.5206 336° Northwest 398 458 34,000 -240 Descending Miami Center
05:02PM 27.4436 -82.5869 333° Northwest 420 483 34,000  Level Miami Center
05:04PM 27.6219 -82.6889 333° Northwest 416 479 34,000  Level Jacksonville Center
05:05PM 27.7306 -82.7494 334° Northwest 421 484 34,000  Level Jacksonville Center
05:06PM 27.8389 -82.8081 334° Northwest 431 496 34,000  Level Jacksonville Center
05:07PM 27.9392 -82.8808 327° Northwest 431 496 34,000  Level Jacksonville Center
05:08PM 28.0206 -82.9794 313° West 426 490 34,000  Level Jacksonville Center
05:09PM 28.1039 -83.0783 314° West 426 490 34,000  Level Jacksonville Center
05:10PM 28.1808 -83.1775 311° West 426 490 34,000  Level Jacksonville Center
05:11PM 28.2619 -83.2792 312° West 426 490 34,000  Level Jacksonville Center
05:12PM 28.3369 -83.3783 311° West 426 490 34,000  Level Jacksonville Center
05:13PM 28.4219 -83.4828 313° West 412 474 34,000  Level Jacksonville Center
05:14PM 28.4986 -83.5822 311° West 412 474 34,000  Level Jacksonville Center
05:15PM 28.5775 -83.6822 312° West 412 474 34,000  Level Jacksonville Center
05:16PM 28.6519 -83.7797 311° West 412 474 34,000  Level Jacksonville Center
05:17PM 28.7306 -83.8800 312° West 412 474 34,000  Level Jacksonville Center
05:18PM 28.8069 -83.9800 311° West 412 474 34,000  Level Jacksonville Center
05:19PM 28.8833 -84.0783 312° West 412 474 34,000  Level Jacksonville Center
05:20PM 28.9636 -84.1742 314° West 412 474 34,000  Level Jacksonville Center
05:21PM 29.0483 -84.2653 317° Northwest 412 474 34,000  Level Jacksonville Center
05:22PM 29.1331 -84.3547 317° Northwest 412 474 34,000  Level Jacksonville Center
05:23PM 29.2175 -84.4486 316° Northwest 412 474 34,000  Level Jacksonville Center
05:24PM 29.3039 -84.5381 318° Northwest 422 486 34,000  Level Jacksonville Center
05:25PM 29.3903 -84.6300 317° Northwest 422 486 34,000  Level Jacksonville Center
05:26PM 29.4747 -84.7247 316° Northwest 422 486 34,000  Level Jacksonville Center
05:27PM 29.5589 -84.8169 316° Northwest 422 486 34,000  Level Jacksonville Center
05:28PM 29.6453 -84.9069 318° Northwest 422 486 34,000  Level Jacksonville Center
05:29PM 29.7272 -85.0019 315° West 422 486 34,000  Level Jacksonville Center
05:30PM 29.8153 -85.0925 318° Northwest 422 486 34,000  Level Jacksonville Center
05:31PM 29.9014 -85.1831 318° Northwest 422 486 34,000  Level Jacksonville Center
05:32PM 29.9853 -85.2786 315° West 422 486 34,000  Level Jacksonville Center
05:33PM 30.0714 -85.3694 318° Northwest 422 486 34,000  Level Jacksonville Center
05:34PM 30.1528 -85.4653 314° West 417 480 34,000  Level Jacksonville Center
05:35PM 30.2364 -85.5636 315° West 424 488 34,000  Level Jacksonville Center
05:36PM 30.3161 -85.6428 319° Northwest 418 481 34,000  Level Jacksonville Center
05:37PM 30.3847 -85.7556 305° West 421 484 34,000  Level Jacksonville Center
05:38PM 30.4489 -85.8636 305° West 416 479 34,000  Level Jacksonville Center
05:39PM 30.5175 -85.9742 306° West 416 479 34,000  Level Jacksonville Center
05:40PM 30.5836 -86.0850 305° West 421 484 34,000 240 Level Jacksonville Center
05:41PM 30.6517 -86.1983 305° West 427 491 34,600 840 Climbing Jacksonville Center
05:42PM 30.7197 -86.3094 305° West 432 497 35,700 660 Climbing Jacksonville Center
05:43PM 30.7875 -86.4253 304° West 432 497 36,000 120 Climbing Jacksonville Center
05:44PM 30.8553 -86.5367 305° West 432 497 36,000  Level Jacksonville Center
05:45PM 30.9211 -86.6458 305° West 432 497 36,000  Level Jacksonville Center
05:47PM 31.0456 -86.8186 310° West 431 496 36,000  Level Atlanta Center
05:48PM 31.1269 -86.9131 315° West 426 490 36,000  Level Atlanta Center
05:49PM 31.2081 -87.0103 314° West 420 483 36,000  Level Atlanta Center
05:50PM 31.2933 -87.1078 316° Northwest 415 478 36,000  Level Atlanta Center
05:51PM 31.3764 -87.2078 314° West 415 478 36,000  Level Atlanta Center
05:52PM 31.4550 -87.3056 313° West 415 478 36,000  Level Atlanta Center
05:53PM 31.5208 -87.4200 304° West 415 478 36,000  Level Atlanta Center
05:54PM 31.5844 -87.5344 303° West 420 483 36,000  Level Atlanta Center
05:55PM 31.6500 -87.6492 304° West 425 489 36,000  Level Atlanta Center
05:56PM 31.7156 -87.7642 304° West 425 489 36,000  Level Atlanta Center
05:57PM 31.8197 -87.9492 304° West 426 490 36,000  Level Memphis Center
05:58PM 31.8847 -88.0650 303° West 426 490 36,000  Level Memphis Center
05:59PM 31.9514 -88.1808 304° West 426 490 36,000  Level Memphis Center
06:00PM 32.0139 -88.2919 304° West 426 490 36,000  Level Memphis Center
06:01PM 32.0889 -88.4178 305° West 426 490 36,000  Level Memphis Center
06:02PM 32.1492 -88.5342 301° West 426 490 36,000  Level Memphis Center
06:03PM 32.2156 -88.6483 305° West 426 490 36,000  Level Memphis Center
06:04PM 32.2797 -88.7675 303° West 426 490 36,000  Level Memphis Center
06:05PM 32.3458 -88.8844 304° West 426 490 36,000  Level Memphis Center
06:06PM 32.4097 -89.0014 303° West 426 490 36,000  Level Memphis Center
06:07PM 32.4758 -89.1211 303° West 426 490 36,000  Level Memphis Center
06:08PM 32.5394 -89.2408 302° West 426 490 36,000  Level Memphis Center
06:09PM 32.6053 -89.3586 304° West 426 490 36,000  Level Memphis Center
06:10PM 32.6689 -89.4786 302° West 426 490 36,000  Level Memphis Center
06:11PM 32.7322 -89.5942 303° West 426 490 36,000  Level Memphis Center
06:12PM 32.7956 -89.7122 303° West 426 490 36,000  Level Memphis Center
06:13PM 32.8544 -89.8206 303° West 426 490 36,000  Level Memphis Center
06:14PM 32.9175 -89.9392 302° West 426 490 36,000  Level Memphis Center
06:15PM 32.9847 -90.0650 303° West 441 507 36,000  Level Memphis Center
06:16PM 33.0475 -90.1814 303° West 435 501 36,000  Level Memphis Center
06:17PM 33.1186 -90.3100 303° West 430 495 36,000  Level Memphis Center
06:18PM 33.1792 -90.4292 301° West 430 495 36,000  Level Memphis Center
06:19PM 33.2439 -90.5511 302° West 430 495 36,000  Level Memphis Center
06:20PM 33.3061 -90.6706 302° West 430 495 36,000  Level Memphis Center
06:21PM 33.3706 -90.7875 303° West 430 495 36,000  Level Memphis Center
06:22PM 33.4328 -90.9047 302° West 425 489 36,000  Level Memphis Center
06:23PM 33.4947 -91.0247 302° West 425 489 36,000  Level Memphis Center
06:24PM 33.5547 -91.1400 302° West 425 489 36,000  Level Memphis Center
06:25PM 33.6144 -91.2603 301° West 425 489 36,000  Level Memphis Center
06:26PM 33.6739 -91.3781 301° West 420 483 36,000  Level Memphis Center
06:27PM 33.7378 -91.4939 304° West 420 483 36,000  Level Memphis Center
06:28PM 33.7992 -91.6144 302° West 420 483 36,000  Level Memphis Center
06:29PM 33.8586 -91.7206 304° West 420 483 36,000  Level Memphis Center
06:30PM 33.9197 -91.8392 302° West 425 489 36,000  Level Memphis Center
06:31PM 33.9789 -91.9603 301° West 425 489 36,000  Level Memphis Center
06:32PM 34.0378 -92.0792 301° West 425 489 36,000  Level Memphis Center
06:33PM 34.1047 -92.2086 302° West 415 478 36,000  Level Memphis Center
06:34PM 34.1636 -92.3253 301° West 410 472 36,000  Level Memphis Center
06:35PM 34.2242 -92.4472 301° West 410 472 36,000  Level Memphis Center
06:36PM 34.2847 -92.5667 302° West 410 472 36,000  Level Memphis Center
06:37PM 34.3453 -92.6842 302° West 410 472 36,000  Level Memphis Center
06:38PM 34.4033 -92.8039 300° West 410 472 36,000  Level Memphis Center
06:39PM 34.4614 -92.9239 300° West 410 472 36,000  Level Memphis Center
06:40PM 34.5194 -93.0417 301° West 410 472 36,000  Level Memphis Center
06:41PM 34.5817 -93.1622 302° West 410 472 36,000  Level Memphis Center
06:42PM 34.6394 -93.2803 301° West 410 472 36,000  Level Memphis Center
06:43PM 34.6950 -93.3983 300° West 410 472 36,000  Level Memphis Center
06:44PM 34.7525 -93.5167 301° West 410 472 36,000  Level Memphis Center
06:45PM 34.7658 -93.6511 277° West 396 456 36,000  Level Memphis Center
06:46PM 34.7725 -93.7828 274° West 391 450 36,000  Level Memphis Center
06:47PM 34.7836 -93.9147 276° West 396 456 36,000  Level Memphis Center
06:48PM 34.7900 -94.0517 273° West 396 456 36,000  Level Memphis Center
06:49PM 34.7964 -94.1808 273° West 396 456 36,000  Level Memphis Center
06:50PM 34.7986 -94.3125 271° West 396 456 36,000  Level Memphis Center
06:51PM 34.8031 -94.4392 272° West 407 468 36,000  Level Memphis Center
06:53PM 34.8114 -94.5936 274° West 401 461 36,000  Level Fort Worth Center
06:54PM 34.8186 -94.7250 274° West 396 456 36,000  Level Fort Worth Center
06:55PM 34.8214 -94.8664 271° West 403 464 36,000  Level Fort Worth Center
06:56PM 34.8261 -95.0031 272° West 403 464 36,000  Level Fort Worth Center
06:57PM 34.8308 -95.1369 272° West 404 465 36,000  Level Fort Worth Center
06:58PM 34.8356 -95.2886 272° West 404 465 36,000  Level Fort Worth Center
06:59PM 34.8400 -95.4250 272° West 409 471 36,000  Level Fort Worth Center
07:00PM 34.8419 -95.5592 271° West 404 465 36,000  Level Fort Worth Center
07:01PM 34.8436 -95.6756 271° West 396 456 36,000  Level Fort Worth Center
07:02PM 34.8642 -95.8067 281° West 396 456 36,000  Level Fort Worth Center
07:03PM 34.9322 -95.9142 308° West 389 448 36,000  Level Fort Worth Center
07:04PM 35.0044 -96.0219 309° West 390 449 36,000  Level Fort Worth Center
07:05PM 35.0786 -96.1297 310° West 403 464 36,000  Level Fort Worth Center
07:06PM 35.1506 -96.2378 309° West 409 471 36,000  Level Fort Worth Center
07:07PM 35.2203 -96.3436 309° West 414 476 36,000  Level Fort Worth Center
07:08PM 35.3356 -96.5169 309° West 409 471 36,000  Level Kansas City Center
07:09PM 35.4064 -96.6272 308° West 413 475 36,000  Level Kansas City Center
07:10PM 35.4783 -96.7378 309° West 415 478 36,000  Level Kansas City Center
07:11PM 35.5519 -96.8514 309° West 423 487 36,000  Level Kansas City Center
07:12PM 35.6264 -96.9653 309° West 428 493 36,000  Level Kansas City Center
07:13PM 35.7156 -97.1031 309° West 433 498 36,000  Level Kansas City Center
07:14PM 35.7881 -97.2156 308° West 428 493 36,000  Level Kansas City Center
07:15PM 35.8597 -97.3278 308° West 423 487 36,000  Level Kansas City Center
07:16PM 35.9314 -97.4422 308° West 423 487 36,000  Level Kansas City Center
07:17PM 36.0050 -97.5569 308° West 427 491 36,000  Level Kansas City Center
07:18PM 36.0781 -97.6733 308° West 429 494 36,000  Level Kansas City Center
07:19PM 36.1497 -97.7889 308° West 427 491 36,000  Level Kansas City Center
07:20PM 36.2194 -97.8994 308° West 415 478 36,000  Level Kansas City Center
07:21PM 36.2906 -98.0150 307° West 409 471 36,000  Level Kansas City Center
07:22PM 36.3606 -98.1253 308° West 408 470 36,000  Level Kansas City Center
07:24PM 36.4439 -98.2586 308° West 407 468 36,000  Level Kansas City Center
07:25PM 36.5117 -98.3697 307° West 406 467 36,000  Level Kansas City Center
07:26PM 36.5803 -98.4808 308° West 406 467 36,000  Level Kansas City Center
07:27PM 36.6500 -98.5944 307° West 409 471 36,000  Level Kansas City Center
07:28PM 36.7194 -98.7072 308° West 412 474 36,000  Level Kansas City Center
07:29PM 36.7892 -98.8217 307° West 413 475 36,000  Level Kansas City Center
07:30PM 36.8594 -98.9353 308° West 413 475 36,000  Level Kansas City Center
07:31PM 36.9289 -99.0531 306° West 419 482 36,000  Level Kansas City Center
07:32PM 36.9983 -99.1664 308° West 414 476 36,000  Level Kansas City Center
07:33PM 37.0819 -99.3056 307° West 416 479 36,000  Level Kansas City Center
07:34PM 37.1517 -99.4225 307° West 418 481 36,000  Level Kansas City Center
07:35PM 37.2239 -99.5436 307° West 417 480 36,000  Level Kansas City Center
07:36PM 37.2872 -99.6508 307° West 406 467 36,000  Level Kansas City Center
07:37PM 37.3533 -99.7592 308° West 406 467 36,000  Level Kansas City Center
07:38PM 37.4294 -99.8878 307° West 410 472 36,000  Level Kansas City Center
07:39PM 37.4953 -99.9989 307° West 413 475 36,000  Level Kansas City Center
07:40PM 37.5711 -100.1286 306° West 414 476 36,000  Level Kansas City Center
07:41PM 37.6350 -100.2372 307° West 406 467 36,000  Level Kansas City Center
07:42PM 37.7000 -100.3486 306° West 411 473 36,000  Level Kansas City Center
07:43PM 37.7778 -100.4794 307° West 418 481 36,000  Level Kansas City Center
07:44PM 37.8414 -100.5900 306° West 414 476 36,000  Level Kansas City Center
07:45PM 37.9158 -100.7192 306° West 411 473 36,000  Level Kansas City Center
07:46PM 37.9644 -100.8394 297° West 406 467 36,000  Level Kansas City Center
07:47PM 38.0172 -100.9811 295° West 403 464 36,000  Level Kansas City Center
07:48PM 38.0650 -101.1047 296° West 408 470 36,000  Level Kansas City Center
07:49PM 38.1117 -101.2283 296° West 408 470 36,000  Level Kansas City Center
07:50PM 38.1428 -101.3106 296° West 408 470 36,000  Level Denver Center
07:51PM 38.1900 -101.4356 296° West 410 472 36,000  Level Denver Center
07:52PM 38.2183 -101.5881 283° West 414 476 36,000  Level Denver Center
07:53PM 38.1983 -101.7228 259° West 406 467 36,000  Level Denver Center
07:54PM 38.1758 -101.8817 260° West 409 471 36,000  Level Denver Center
07:55PM 38.1575 -102.0164 260° West 409 471 36,000  Level Denver Center
07:56PM 38.1386 -102.1517 260° West 407 468 36,000  Level Denver Center
07:57PM 38.1161 -102.3103 260° West 409 471 36,000  Level Denver Center
07:58PM 38.1733 -102.4269 302° West 424 488 36,000  Level Denver Center
07:59PM 38.2614 -102.5522 312° West 425 489 36,000 -360 Level Denver Center
08:00PM 38.3303 -102.6617 309° West 416 479 35,300 -840 Descending Denver Center
08:01PM 38.4125 -102.7925 309° West 424 488 34,300 -960 Descending Denver Center
08:02PM 38.4872 -102.9103 309° West 443 510 33,400 -960 Descending Denver Center
08:03PM 38.5661 -103.0333 309° West 447 514 32,400 -720 Descending Denver Center
08:04PM 38.6544 -103.1742 309° West 454 522 32,000 -240 Descending Denver Center
08:05PM 38.7294 -103.2944 309° West 454 522 32,000 -780 Level Denver Center
08:06PM 38.8161 -103.4328 309° West 448 516 30,400 -1,860 Descending Denver Center
08:07PM 38.8861 -103.5456 309° West 429 494 28,200 -2,280 Descending Denver Center
08:08PM 38.9658 -103.6731 309° West 413 475 25,800 -2,160 Descending Denver Center
08:09PM 39.0303 -103.7792 308° West 399 459 23,800 -2,100 Descending Denver Center
08:10PM 39.1033 -103.8956 309° West 377 434 21,500 -2,100 Descending Denver Center
08:11PM 39.1667 -103.9917 310° West 371 427 19,600 -1,800 Descending Denver Center
08:12PM 39.2292 -104.0817 312° West 365 420 17,900 -1,860 Descending Denver Center
08:13PM 39.3194 -104.1536 328° Northwest 348 400 15,800 -2,040 Descending Denver Center
08:14PM 39.3972 -104.2111 330° Northwest 324 373 13,800 -1,380 Descending Denver Center
08:15PM 39.4839 -104.2681 333° Northwest 325 374 13,000 -1,200 Descending Denver Center
08:16PM 39.5589 -104.3214 331° Northwest 311 358 11,400 -1,080 Descending Denver Center
08:17PM 39.6197 -104.3928 318° Northwest 296 341 10,900 -540 Descending Denver Center
08:18PM 39.6150 -104.4933 267° West 258 297 10,300 -1,020 Descending Denver Center
08:19PM 39.5497 -104.5214 198° South 262 302 8,800 -1,140 Descending Denver Center
08:20PM 39.4944 -104.5583 207° Southwest 253 291 8,000 -420 Descending Denver Center
08:21PM 39.5231 -104.6300 297° West 233 268 8,000  Level Denver Center
08:22PM 39.5806 -104.6453 348° North 215 247 8,000  Level Denver Center
08:24PM 39.6386 -104.6439 North 208 239 8,000  Level Denver Center